Aviation Digital Data Service (ADDS)

Output produced by METARs form (0532 UTC 19 February 2019)
found at http://www.aviationweather.gov/metar/data/
 
METAR text: FKKL 181600Z 01006KT 340V040 CAVOK 34/M02 Q1010
Conditions at: FKKL (MAROUA SALAK , CM) observed 1600 UTC 18 February 2019
Temperature: 34.0°C (93°F)
Dewpoint: -2.0°C (28°F) [RH = 10%]
Pressure (altimeter): 29.82 inches Hg (1010.0 mb)
Winds: from the N (10 degrees) at 7 MPH (6 knots; 3.1 m/s)
Visibility: 6 or more miles (10+ km)
Ceiling: ceiling and visibility are OK
Clouds: unknown
Weather: no significant weather observed at this time

METAR text: FKKL 181500Z 36005KT 290V060 CAVOK 35/M02 Q1010
Conditions at: FKKL (MAROUA SALAK , CM) observed 1500 UTC 18 February 2019
Temperature: 35.0°C (95°F)
Dewpoint: -2.0°C (28°F) [RH =  9%]
Pressure (altimeter): 29.82 inches Hg (1010.0 mb)
Winds: from the N (360 degrees) at 6 MPH (5 knots; 2.6 m/s)
Visibility: 6 or more miles (10+ km)
Ceiling: ceiling and visibility are OK
Clouds: unknown
Weather: no significant weather observed at this time

METAR text: FKKL 181400Z 06007KT 330V110 CAVOK 35/M02 Q1011
Conditions at: FKKL (MAROUA SALAK , CM) observed 1400 UTC 18 February 2019
Temperature: 35.0°C (95°F)
Dewpoint: -2.0°C (28°F) [RH =  9%]
Pressure (altimeter): 29.85 inches Hg (1011.0 mb)
Winds: from the ENE (60 degrees) at 8 MPH (7 knots; 3.6 m/s)
Visibility: 6 or more miles (10+ km)
Ceiling: ceiling and visibility are OK
Clouds: unknown
Weather: no significant weather observed at this time

METAR text: FKKL 181300Z VRB06KT CAVOK 35/M03 Q1012
Conditions at: FKKL (MAROUA SALAK , CM) observed 1300 UTC 18 February 2019
Temperature: 35.0°C (95°F)
Dewpoint: -3.0°C (27°F) [RH =  9%]
Pressure (altimeter): 29.88 inches Hg (1012.0 mb)
Winds: variable direction winds at 7 MPH (6 knots; 3.1 m/s)
Visibility: 6 or more miles (10+ km)
Ceiling: ceiling and visibility are OK
Clouds: unknown
Weather: no significant weather observed at this time

METAR text: FKKL 181200Z VRB03KT CAVOK 33/M02 Q1014
Conditions at: FKKL (MAROUA SALAK , CM) observed 1200 UTC 18 February 2019
Temperature: 33.0°C (91°F)
Dewpoint: -2.0°C (28°F) [RH = 10%]
Pressure (altimeter): 29.94 inches Hg (1014.0 mb)
Winds: variable direction winds at 3 MPH (3 knots; 1.5 m/s)
Visibility: 6 or more miles (10+ km)
Ceiling: ceiling and visibility are OK
Clouds: unknown
Weather: no significant weather observed at this time

METAR text: FKKL 181100Z 06005KT 330V140 CAVOK 32/M02 Q1015
Conditions at: FKKL (MAROUA SALAK , CM) observed 1100 UTC 18 February 2019
Temperature: 32.0°C (90°F)
Dewpoint: -2.0°C (28°F) [RH = 11%]
Pressure (altimeter): 29.97 inches Hg (1015.0 mb)
Winds: from the ENE (60 degrees) at 6 MPH (5 knots; 2.6 m/s)
Visibility: 6 or more miles (10+ km)
Ceiling: ceiling and visibility are OK
Clouds: unknown
Weather: no significant weather observed at this time

METAR text: FKKL 181000Z VRB07KT CAVOK 30/M02 Q1016
Conditions at: FKKL (MAROUA SALAK , CM) observed 1000 UTC 18 February 2019
Temperature: 30.0°C (86°F)
Dewpoint: -2.0°C (28°F) [RH = 12%]
Pressure (altimeter): 30.00 inches Hg (1016.0 mb)
Winds: variable direction winds at 8 MPH (7 knots; 3.6 m/s)
Visibility: 6 or more miles (10+ km)
Ceiling: ceiling and visibility are OK
Clouds: unknown
Weather: no significant weather observed at this time

METAR text: FKKL 180900Z 01007KT 300V090 CAVOK 28/M02 Q1017
Conditions at: FKKL (MAROUA SALAK , CM) observed 0900 UTC 18 February 2019
Temperature: 28.0°C (82°F)
Dewpoint: -2.0°C (28°F) [RH = 14%]
Pressure (altimeter): 30.03 inches Hg (1017.0 mb)
Winds: from the N (10 degrees) at 8 MPH (7 knots; 3.6 m/s)
Visibility: 6 or more miles (10+ km)
Ceiling: ceiling and visibility are OK
Clouds: unknown
Weather: no significant weather observed at this time

METAR text: FKKL 180800Z 01008KT 340V060 CAVOK 25/M02 Q1016
Conditions at: FKKL (MAROUA SALAK , CM) observed 0800 UTC 18 February 2019
Temperature: 25.0°C (77°F)
Dewpoint: -2.0°C (28°F) [RH = 17%]
Pressure (altimeter): 30.00 inches Hg (1016.0 mb)
Winds: from the N (10 degrees) at 9 MPH (8 knots; 4.1 m/s)
Visibility: 6 or more miles (10+ km)
Ceiling: ceiling and visibility are OK
Clouds: unknown
Weather: no significant weather observed at this time

METAR text: FKKL 180700Z 01010KT CAVOK 22/M02 Q1016
Conditions at: FKKL (MAROUA SALAK , CM) observed 0700 UTC 18 February 2019
Temperature: 22.0°C (72°F)
Dewpoint: -2.0°C (28°F) [RH = 20%]
Pressure (altimeter): 30.00 inches Hg (1016.0 mb)
Winds: from the N (10 degrees) at 12 MPH (10 knots; 5.1 m/s)
Visibility: 6 or more miles (10+ km)
Ceiling: ceiling and visibility are OK
Clouds: unknown
Weather: no significant weather observed at this time

Forecast for: FKKL (MAROUA SALAK , CM)
Text: TAF FKKL 190500Z 1906/1918 VRB08KT 8000 NSC
Forecast period: 0600 to 1800 UTC 19 February 2019
Forecast type: FROM: standard forecast or significant change
Winds: variable direction winds at 9 MPH (8 knots; 4.1 m/s)
Visibility: 5 miles (8 km)
Ceiling: unknown
Clouds: missing
Weather: no significant weather forecast for this period